Time;durP1;ratioP1;P1;durP2;ratioP2;P2;SDS_P1;SDS_P2;PMS_P1;PMS_P2;Temp;Humidity;BMP_temperature;BMP_pressure;BME280_temperature;BME280_humidity;BME280_pressure;Samples;Min_cycle;Max_cycle;Signal;HPM_P1;HPM_P2
2022/06/28 00:00:56;;;;;;;3.72;2.35;;;13.00;99.90;;;;;;5118141;27;20575;-67
2022/06/28 00:03:22;;;;;;;5.00;2.88;;;13.00;99.90;;;;;;5122715;28;20043;-67
2022/06/28 00:05:48;;;;;;;;;;;13.00;99.90;;;;;;5121668;28;20448;-67
2022/06/28 00:08:14;;;;;;;6.15;2.70;;;13.00;99.90;;;;;;5121914;27;19923;-66
2022/06/28 00:10:39;;;;;;;;;;;13.00;99.90;;;;;;5122032;28;20046;-66
2022/06/28 00:13:05;;;;;;;3.80;1.92;;;13.00;99.90;;;;;;5123527;27;19916;-67
2022/06/28 00:18:15;;;;;;;9.88;2.63;;;13.00;99.90;;;;;;5111204;28;19916;-67
2022/06/28 00:20:41;;;;;;;;;;;13.00;99.90;;;;;;5108762;28;20086;-67
2022/06/28 00:23:06;;;;;;;6.18;2.60;;;12.90;99.90;;;;;;5108643;28;20370;-67
2022/06/28 00:25:32;;;;;;;;;;;12.90;99.90;;;;;;5108941;28;20885;-66
2022/06/28 00:27:57;;;;;;;4.78;3.25;;;12.90;99.90;;;;;;5105793;28;19999;-66
2022/06/28 00:30:23;;;;;;;;;;;12.90;99.90;;;;;;5104832;28;20082;-67
2022/06/28 00:32:48;;;;;;;5.80;2.80;;;12.80;99.90;;;;;;5104885;28;19919;-66
2022/06/28 00:35:14;;;;;;;;;;;12.80;99.90;;;;;;5103622;28;20080;-66
2022/06/28 00:37:40;;;;;;;6.95;3.08;;;12.80;99.90;;;;;;5108077;28;19920;-66
2022/06/28 00:40:06;;;;;;;;;;;12.70;99.90;;;;;;5106442;28;20047;-67
2022/06/28 00:42:31;;;;;;;5.32;3.40;;;12.70;99.90;;;;;;5109453;28;19920;-66
2022/06/28 00:44:58;;;;;;;;;;;12.60;99.90;;;;;;5108541;28;20099;-67
2022/06/28 00:47:25;;;;;;;9.00;3.20;;;12.60;99.90;;;;;;5106444;28;19981;-66
2022/06/28 00:49:51;;;;;;;10.20;3.60;;;12.50;99.90;;;;;;5107529;28;20558;-67
2022/06/28 00:52:17;;;;;;;;;;;12.40;99.90;;;;;;5107314;28;20043;-66
2022/06/28 00:54:42;;;;;;;9.43;3.95;;;12.30;99.90;;;;;;5107748;28;19916;-66
2022/06/28 00:57:08;;;;;;;;;;;12.30;99.90;;;;;;5107997;28;20499;-66
2022/06/28 00:59:34;;;;;;;10.35;2.97;;;12.30;99.90;;;;;;5104528;28;19922;-66
2022/06/28 01:02:00;;;;;;;8.18;4.03;;;12.10;99.90;;;;;;5106247;28;20043;-66
2022/06/28 01:04:26;;;;;;;5.50;4.03;;;12.00;99.90;;;;;;5107458;28;20537;-66
2022/06/28 01:06:52;;;;;;;;;;;11.90;99.90;;;;;;5107709;28;20169;-66
2022/06/28 01:09:18;;;;;;;6.18;3.35;;;11.80;99.90;;;;;;5104474;28;19916;-66
2022/06/28 01:11:43;;;;;;;;;;;11.80;99.90;;;;;;5103789;28;20076;-66
2022/06/28 01:14:09;;;;;;;8.70;3.60;;;11.60;99.90;;;;;;5107599;28;19981;-67
2022/06/28 01:16:35;;;;;;;;;;;11.60;99.90;;;;;;5108317;28;20437;-66
2022/06/28 01:19:01;;;;;;;8.25;4.00;;;11.50;99.90;;;;;;5105362;27;19928;-66
2022/06/28 01:21:30;;;;;;;;;;;11.50;99.90;;;;;;5107629;28;20048;-66
2022/06/28 01:23:57;;;;;;;10.63;4.47;;;11.50;99.90;;;;;;5107674;28;19926;-67
2022/06/28 01:26:23;;;;;;;7.10;3.55;;;11.50;99.90;;;;;;5107300;28;20051;-66
2022/06/28 01:28:49;;;;;;;;;;;11.60;99.90;;;;;;5103066;28;20047;-67
2022/06/28 01:31:18;;;;;;;5.90;3.92;;;11.60;99.90;;;;;;5102311;28;19915;-67
2022/06/28 01:33:44;;;;;;;6.75;4.03;;;11.60;99.90;;;;;;5105212;28;20106;-66
2022/06/28 01:36:10;;;;;;;10.73;4.30;;;11.60;99.90;;;;;;5105049;28;20044;-66
2022/06/28 01:38:38;;;;;;;5.07;3.47;;;11.60;99.90;;;;;;5104852;28;20075;-67
2022/06/28 01:41:05;;;;;;;7.50;3.33;;;11.70;99.90;;;;;;5083886;28;20067;-67
2022/06/28 01:43:32;;;;;;;6.53;3.67;;;11.70;99.90;;;;;;5102934;28;20058;-67
2022/06/28 01:45:59;;;;;;;4.85;4.03;;;11.70;99.90;;;;;;5102525;28;20036;-66
2022/06/28 01:48:25;;;;;;;10.85;4.18;;;11.70;99.90;;;;;;5106317;28;20035;-66
2022/06/28 01:50:52;;;;;;;;;;;11.70;99.90;;;;;;5108749;28;20076;-67
2022/06/28 01:53:19;;;;;;;9.80;4.50;;;11.70;99.90;;;;;;5106256;28;20403;-66
2022/06/28 01:55:45;;;;;;;7.35;3.95;;;11.60;99.90;;;;;;5101861;28;20164;-67
2022/06/28 01:58:10;;;;;;;;;;;11.60;99.90;;;;;;5087851;28;20082;-67
2022/06/28 02:00:36;;;;;;;6.55;3.90;;;11.50;99.90;;;;;;5101575;27;19916;-66
2022/06/28 02:03:02;;;;;;;;;;;11.50;99.90;;;;;;5107621;28;20839;-66
2022/06/28 02:05:29;;;;;;;8.82;3.78;;;11.50;99.90;;;;;;5106692;28;20366;-67
2022/06/28 02:07:55;;;;;;;16.55;5.13;;;11.50;99.90;;;;;;5104677;28;20457;-67
2022/06/28 02:10:20;;;;;;;;;;;11.50;99.90;;;;;;5106642;28;20149;-67
2022/06/28 02:12:46;;;;;;;8.50;4.28;;;11.40;99.90;;;;;;5106812;28;19920;-67
2022/06/28 02:15:12;;;;;;;;;;;11.30;99.90;;;;;;5108982;28;20565;-67
2022/06/28 02:17:37;;;;;;;7.90;3.50;;;11.30;99.90;;;;;;5105607;28;20010;-67
2022/06/28 02:20:03;;;;;;;;;;;11.20;99.90;;;;;;5106291;28;20657;-67
2022/06/28 02:22:29;;;;;;;4.38;2.92;;;11.10;99.90;;;;;;5105489;28;19915;-66
2022/06/28 02:24:54;;;;;;;;;;;11.20;99.90;;;;;;5106564;28;20043;-67
2022/06/28 02:27:20;;;;;;;8.30;3.17;;;11.30;99.90;;;;;;5105958;28;19931;-66
2022/06/28 02:29:45;;;;;;;;;;;11.40;99.90;;;;;;5106230;28;20126;-67
2022/06/28 02:32:11;;;;;;;7.15;2.75;;;11.50;99.90;;;;;;5107224;28;19915;-66
2022/06/28 02:40:21;;;;;;;7.88;3.22;;;11.20;99.90;;;;;;5106967;28;20067;-67
2022/06/28 02:42:56;;;;;;;6.93;3.15;;;11.10;99.90;;;;;;5106853;28;20036;-67
2022/06/28 02:45:23;;;;;;;6.57;3.75;;;11.00;99.90;;;;;;5106100;28;20050;-68
2022/06/28 02:47:50;;;;;;;9.25;3.55;;;11.00;99.90;;;;;;5104653;28;20047;-68
2022/06/28 02:50:16;;;;;;;5.97;3.33;;;10.90;99.90;;;;;;5105321;28;20548;-68
2022/06/28 02:52:41;;;;;;;6.78;3.20;;;10.90;99.90;;;;;;5103741;28;20086;-68
2022/06/28 02:55:07;;;;;;;;;;;10.90;99.90;;;;;;5105700;28;20067;-67
2022/06/28 02:57:34;;;;;;;8.07;3.17;;;10.80;99.90;;;;;;5105471;28;19965;-67
2022/06/28 03:00:02;;;;;;;8.07;3.53;;;10.80;99.90;;;;;;5105236;28;20096;-68
2022/06/28 03:02:27;;;;;;;4.63;2.40;;;10.80;99.90;;;;;;5105542;28;20764;-67
2022/06/28 03:04:53;;;;;;;;;;;10.80;99.90;;;;;;5107394;28;20036;-67
2022/06/28 03:07:18;;;;;;;10.63;3.30;;;10.80;99.90;;;;;;5105123;28;19920;-67
2022/06/28 03:09:44;;;;;;;;;;;10.80;99.90;;;;;;5107278;28;20036;-67
2022/06/28 03:12:09;;;;;;;6.90;3.67;;;10.90;99.90;;;;;;5105277;28;19915;-67
2022/06/28 03:14:35;;;;;;;;;;;11.00;99.90;;;;;;5106497;28;20504;-67
2022/06/28 03:17:01;;;;;;;4.30;3.17;;;10.90;99.90;;;;;;5105345;28;19923;-67
2022/06/28 03:19:26;;;;;;;;;;;10.90;99.90;;;;;;5101513;28;20039;-68
2022/06/28 03:21:52;;;;;;;8.68;3.58;;;10.90;99.90;;;;;;5104356;28;19919;-68
2022/06/28 03:24:18;;;;;;;7.57;3.55;;;10.90;99.90;;;;;;5105384;28;20080;-67
2022/06/28 03:26:43;;;;;;;;;;;10.90;99.90;;;;;;5106325;28;20044;-67
2022/06/28 03:29:09;;;;;;;10.77;4.00;;;10.80;99.90;;;;;;5104686;28;20014;-67
2022/06/28 03:31:35;;;;;;;11.02;3.35;;;10.80;99.90;;;;;;5101364;28;20028;-67
2022/06/28 03:34:00;;;;;;;4.57;2.88;;;10.80;99.90;;;;;;5094242;28;20036;-67
2022/06/28 03:36:26;;;;;;;;;;;10.80;99.90;;;;;;5095173;28;20048;-68
2022/06/28 03:38:52;;;;;;;7.10;3.30;;;10.90;99.90;;;;;;5094563;28;19919;-67
2022/06/28 03:41:22;;;;;;;;;;;10.90;99.90;;;;;;5098009;28;20056;-67
2022/06/28 03:43:54;;;;;;;9.57;3.30;;;11.00;99.90;;;;;;5092222;28;19945;-68
2022/06/28 03:46:20;;;;;;;4.63;2.80;;;11.20;99.90;;;;;;5093655;28;20035;-67
2022/06/28 03:48:46;;;;;;;5.72;3.00;;;11.50;99.90;;;;;;5093930;28;20040;-67
2022/06/28 03:51:15;;;;;;;4.07;2.53;;;11.80;99.90;;;;;;5099259;28;20399;-68
2022/06/28 03:53:41;;;;;;;6.25;2.83;;;12.00;99.90;;;;;;5098730;28;20133;-67
2022/06/28 03:56:07;;;;;;;;;;;12.20;99.90;;;;;;5098135;28;20089;-67
2022/06/28 03:58:33;;;;;;;5.28;2.53;;;12.10;99.90;;;;;;5098097;28;20001;-67
2022/06/28 04:00:58;;;;;;;;;;;12.00;99.90;;;;;;5097023;28;20039;-68
2022/06/28 04:03:24;;;;;;;5.45;3.10;;;11.90;99.90;;;;;;5106576;28;19926;-64
2022/06/28 04:05:49;;;;;;;;;;;11.80;99.90;;;;;;5109350;28;20044;-67
2022/06/28 04:08:15;;;;;;;5.43;2.55;;;11.70;99.90;;;;;;5108698;28;20017;-68
2022/06/28 04:10:41;;;;;;;;;;;11.70;99.90;;;;;;5109679;28;20063;-67
2022/06/28 04:13:06;;;;;;;6.32;2.80;;;11.80;99.90;;;;;;5107542;28;19922;-64
2022/06/28 04:15:32;;;;;;;;;;;11.90;99.90;;;;;;5109267;28;20131;-64
2022/06/28 04:17:58;;;;;;;6.70;2.85;;;11.90;99.90;;;;;;5107887;28;19951;-68
2022/06/28 04:20:23;;;;;;;;;;;12.10;99.90;;;;;;5108358;28;20494;-68
2022/06/28 04:22:50;;;;;;;5.13;1.80;;;12.40;99.90;;;;;;5107588;28;19938;-67
2022/06/28 04:25:15;;;;;;;8.95;2.45;;;12.70;99.90;;;;;;5108355;28;20125;-65
2022/06/28 04:27:41;;;;;;;;;;;12.80;99.90;;;;;;5106850;28;20538;-65
2022/06/28 04:30:07;;;;;;;4.25;1.63;;;12.80;99.90;;;;;;5106873;28;19916;-67
2022/06/28 04:32:33;;;;;;;3.85;1.85;;;12.80;99.90;;;;;;5108000;28;20039;-67
2022/06/28 04:34:58;;;;;;;;;;;13.00;99.90;;;;;;5107788;28;20034;-67
2022/06/28 04:37:24;;;;;;;6.50;2.35;;;13.60;99.90;;;;;;5106807;28;19925;-66
2022/06/28 04:39:49;;;;;;;;;;;14.00;99.90;;;;;;5108503;28;20058;-67
2022/06/28 04:42:15;;;;;;;5.65;1.80;;;14.20;99.90;;;;;;5107958;28;19958;-66
2022/06/28 04:44:42;;;;;;;;;;;14.20;99.90;;;;;;5109277;28;20038;-65
2022/06/28 04:47:08;;;;;;;8.10;2.67;;;14.10;99.90;;;;;;5108439;28;20016;-65
2022/06/28 04:49:34;;;;;;;3.50;1.88;;;14.10;99.90;;;;;;5107708;28;20030;-67
2022/06/28 04:52:00;;;;;;;;;;;14.00;99.90;;;;;;5107916;28;20133;-67
2022/06/28 04:54:26;;;;;;;6.15;2.00;;;14.10;99.90;;;;;;5094266;28;20302;-67
2022/06/28 04:56:52;;;;;;;;;;;14.00;99.90;;;;;;5107842;28;20043;-66
2022/06/28 04:59:18;;;;;;;3.55;1.50;;;14.30;99.90;;;;;;5107930;28;19915;-68
2022/06/28 05:01:43;;;;;;;;;;;14.60;99.90;;;;;;5107821;28;20038;-68
2022/06/28 05:04:09;;;;;;;4.95;1.80;;;14.50;99.90;;;;;;5102904;28;20015;-67
2022/06/28 05:06:34;;;;;;;;;;;14.20;99.90;;;;;;5108560;28;20046;-68
2022/06/28 05:09:00;;;;;;;11.88;1.90;;;14.10;99.90;;;;;;5108679;28;20018;-67
2022/06/28 05:11:26;;;;;;;4.78;1.70;;;13.90;99.90;;;;;;5108366;28;20692;-67
2022/06/28 05:13:51;;;;;;;;;;;13.80;99.90;;;;;;5108947;28;20131;-68
2022/06/28 05:16:17;;;;;;;6.05;1.85;;;13.70;99.90;;;;;;5106534;28;19916;-68
2022/06/28 05:18:42;;;;;;;;;;;13.70;99.90;;;;;;5106766;28;20043;-68
2022/06/28 05:21:08;;;;;;;4.07;1.67;;;13.70;99.90;;;;;;5107901;28;20398;-68
2022/06/28 05:23:33;;;;;;;;;;;13.70;99.90;;;;;;5107268;28;20504;-68
2022/06/28 05:25:59;;;;;;;7.75;1.40;;;13.80;99.90;;;;;;5107290;28;20334;-69
2022/06/28 05:28:24;;;;;;;;;;;14.00;99.90;;;;;;5107109;28;20038;-69
2022/06/28 05:30:50;;;;;;;5.70;1.58;;;14.20;99.90;;;;;;5106956;27;19967;-68
2022/06/28 05:33:16;;;;;;;4.13;1.50;;;14.50;99.90;;;;;;5107061;28;20039;-67
2022/06/28 05:35:42;;;;;;;;;;;14.70;99.90;;;;;;5106621;28;20043;-68
2022/06/28 05:38:07;;;;;;;6.38;1.50;;;14.80;99.90;;;;;;5106616;28;19919;-69
2022/06/28 05:40:33;;;;;;;3.88;1.52;;;15.20;99.90;;;;;;5106508;28;20480;-68
2022/06/28 05:42:59;;;;;;;;;;;15.60;99.90;;;;;;5107701;28;20038;-68
2022/06/28 05:45:25;;;;;;;4.60;1.08;;;15.80;99.90;;;;;;5107184;28;19919;-67
2022/06/28 05:47:50;;;;;;;;;;;16.10;99.90;;;;;;5107354;28;20035;-68
2022/06/28 05:50:16;;;;;;;4.15;0.93;;;16.00;99.90;;;;;;5106681;28;19997;-68
2022/06/28 05:52:42;;;;;;;4.60;1.58;;;15.70;99.90;;;;;;5106589;28;20031;-69
2022/06/28 05:55:07;;;;;;;;;;;15.60;99.90;;;;;;5107902;28;20067;-69
2022/06/28 05:57:33;;;;;;;3.40;1.20;;;15.50;99.90;;;;;;5105391;28;19931;-68
2022/06/28 05:59:58;;;;;;;;;;;15.40;99.90;;;;;;5105877;28;20040;-69
2022/06/28 06:02:24;;;;;;;5.93;2.03;;;15.30;99.90;;;;;;5103685;28;19945;-67
2022/06/28 06:04:50;;;;;;;;;;;15.40;99.90;;;;;;5107969;28;20066;-68
2022/06/28 06:07:16;;;;;;;4.05;1.40;;;15.60;99.90;;;;;;5107085;28;19920;-69
2022/06/28 06:09:42;;;;;;;;;;;15.60;99.90;;;;;;5106689;28;20081;-68
2022/06/28 06:12:09;;;;;;;5.00;1.60;;;15.50;99.90;;;;;;5107136;28;20310;-68
2022/06/28 06:14:34;;;;;;;8.90;1.80;;;15.60;99.90;;;;;;5107104;28;20039;-68
2022/06/28 06:17:00;;;;;;;;;;;15.90;99.90;;;;;;5106804;28;20038;-68
2022/06/28 06:19:25;;;;;;;3.53;1.40;;;16.30;99.90;;;;;;5105678;28;19916;-68
2022/06/28 06:21:51;;;;;;;;;;;17.70;99.50;;;;;;5107255;28;20039;-68
2022/06/28 06:24:16;;;;;;;2.90;0.75;;;18.90;97.90;;;;;;5108260;28;19915;-67
2022/06/28 06:26:43;;;;;;;4.20;1.10;;;18.90;98.20;;;;;;5106610;28;20043;-68
2022/06/28 06:29:08;;;;;;;3.45;1.23;;;18.70;98.30;;;;;;5105388;28;20036;-69
2022/06/28 06:31:34;;;;;;;;;;;17.90;97.20;;;;;;5105500;28;20062;-68
2022/06/28 06:34:00;;;;;;;5.90;1.17;;;17.70;97.80;;;;;;5100555;28;20045;-69
2022/06/28 06:36:26;;;;;;;4.85;1.60;;;18.00;97.00;;;;;;5100758;28;20073;-69
2022/06/28 06:38:51;;;;;;;;;;;18.40;96.90;;;;;;5105546;28;20119;-70
2022/06/28 06:41:17;;;;;;;3.80;1.10;;;18.10;96.70;;;;;;5106399;28;19916;-68
2022/06/28 06:43:43;;;;;;;5.75;1.63;;;17.80;97.10;;;;;;5106587;28;20028;-69
2022/06/28 06:46:08;;;;;;;;;;;17.40;98.00;;;;;;5107180;28;20055;-68
2022/06/28 06:48:34;;;;;;;4.65;1.10;;;17.30;97.00;;;;;;5106231;28;20291;-69
2022/06/28 06:50:59;;;;;;;3.30;1.20;;;17.30;98.70;;;;;;5106269;28;20107;-68
2022/06/28 06:53:28;;;;;;;5.18;1.33;;;17.30;99.90;;;;;;5106474;28;20035;-67
2022/06/28 06:55:53;;;;;;;7.65;1.40;;;17.50;98.60;;;;;;5098597;28;20132;-68
2022/06/28 06:58:19;;;;;;;;;;;18.40;97.50;;;;;;5086468;28;20067;-68
2022/06/28 07:00:45;;;;;;;2.40;1.10;;;19.00;96.10;;;;;;5100175;28;20302;-68
2022/06/28 07:03:10;;;;;;;6.43;1.35;;;18.80;95.10;;;;;;5106619;28;20116;-68
2022/06/28 07:05:36;;;;;;;;;;;18.80;96.50;;;;;;5107102;28;20031;-68
2022/06/28 07:08:01;;;;;;;9.43;2.22;;;18.70;96.20;;;;;;5104969;28;19916;-68
2022/06/28 07:10:27;;;;;;;4.25;1.73;;;18.30;97.10;;;;;;5106248;28;20046;-67
2022/06/28 07:12:52;;;;;;;3.80;1.58;;;17.70;96.30;;;;;;5106264;28;20031;-70
2022/06/28 07:15:19;;;;;;;3.50;1.25;;;17.60;97.90;;;;;;5104766;28;20055;-67
2022/06/28 07:17:45;;;;;;;5.22;1.75;;;17.60;98.10;;;;;;5105668;28;20040;-67
2022/06/28 07:20:11;;;;;;;;;;;17.40;97.40;;;;;;5105848;28;20109;-68
2022/06/28 07:22:36;;;;;;;4.80;1.40;;;17.80;97.30;;;;;;5106238;28;19919;-68
2022/06/28 07:25:02;;;;;;;;;;;18.00;96.00;;;;;;5106143;28;20071;-68
2022/06/28 07:27:28;;;;;;;6.47;2.10;;;18.20;95.00;;;;;;5106406;28;19927;-70
2022/06/28 07:29:54;;;;;;;2.85;1.50;;;18.20;95.20;;;;;;5108806;28;20114;-68
2022/06/28 07:32:19;;;;;;;;;;;18.00;96.90;;;;;;5110050;28;20606;-68
2022/06/28 07:34:45;;;;;;;3.00;1.40;;;18.00;96.60;;;;;;5110125;28;19984;-67
2022/06/28 07:37:11;;;;;;;5.43;2.17;;;18.00;97.20;;;;;;5102937;28;20040;-68
2022/06/28 07:39:37;;;;;;;;;;;17.90;96.10;;;;;;5110654;28;20039;-70
2022/06/28 07:42:03;;;;;;;3.03;1.55;;;17.80;95.60;;;;;;5108189;28;20372;-69
2022/06/28 07:44:29;;;;;;;4.30;1.70;;;17.70;95.30;;;;;;5101642;28;20089;-68
2022/06/28 07:46:54;;;;;;;;;;;17.50;95.00;;;;;;5112291;28;20402;-68
2022/06/28 07:49:20;;;;;;;5.50;1.60;;;17.40;95.50;;;;;;5109283;28;19919;-69
2022/06/28 07:54:30;;;;;;;2.88;1.10;;;17.60;96.40;;;;;;5109801;28;20104;-67
2022/06/28 07:56:56;;;;;;;;;;;17.60;95.60;;;;;;5110159;28;20051;-67
2022/06/28 07:59:22;;;;;;;3.78;1.25;;;17.80;96.10;;;;;;5108674;28;19966;-69
2022/06/28 08:01:47;;;;;;;;;;;17.90;95.40;;;;;;5109538;27;20039;-68
2022/06/28 08:04:14;;;;;;;3.22;0.98;;;17.90;98.00;;;;;;5110093;28;19920;-68
2022/06/28 08:06:41;;;;;;;3.13;1.02;;;17.90;96.50;;;;;;5076026;28;20032;-67
2022/06/28 08:09:07;;;;;;;1.77;0.65;;;18.10;94.80;;;;;;5109064;28;20410;-68
2022/06/28 08:11:33;;;;;;;3.53;1.10;;;18.90;94.90;;;;;;5109528;28;20534;-69
2022/06/28 08:13:59;;;;;;;4.25;1.02;;;19.70;93.70;;;;;;5109657;28;20414;-67
2022/06/28 08:16:25;;;;;;;3.38;0.88;;;20.50;91.90;;;;;;5109482;28;20067;-67
2022/06/28 08:18:51;;;;;;;2.35;0.88;;;20.80;93.60;;;;;;5108686;28;20067;-68
2022/06/28 08:21:17;;;;;;;5.05;1.30;;;20.80;92.50;;;;;;5109296;28;20055;-68
2022/06/28 08:23:42;;;;;;;5.60;1.23;;;20.40;92.40;;;;;;5109010;28;20126;-69
2022/06/28 08:26:08;;;;;;;1.73;0.82;;;20.00;91.60;;;;;;5107868;28;20044;-70
2022/06/28 08:28:34;;;;;;;3.35;0.98;;;19.50;93.10;;;;;;5108865;27;20075;-70
2022/06/28 08:31:00;;;;;;;2.30;0.90;;;19.40;94.60;;;;;;5108127;28;20119;-68
2022/06/28 08:33:26;;;;;;;3.55;1.05;;;19.20;93.00;;;;;;5108932;28;20093;-67
2022/06/28 08:35:52;;;;;;;1.75;0.52;;;19.10;92.50;;;;;;5108831;28;20043;-67
2022/06/28 08:38:17;;;;;;;2.78;0.80;;;19.60;94.20;;;;;;5106475;28;20039;-68
2022/06/28 08:40:45;;;;;;;2.55;0.90;;;20.40;90.70;;;;;;5109115;28;20043;-70
2022/06/28 08:43:11;;;;;;;1.90;0.80;;;21.60;88.20;;;;;;5107275;28;20490;-70
2022/06/28 08:45:37;;;;;;;1.13;0.70;;;22.30;86.90;;;;;;5108784;28;20091;-68
2022/06/28 08:48:32;;;;;;;4.90;0.88;;;23.50;87.70;;;;;;5108068;28;20121;-70
2022/06/28 08:50:59;;;;;;;1.48;0.50;;;25.00;78.00;;;;;;5077627;28;20044;-68
2022/06/28 08:53:26;;;;;;;1.40;0.68;;;26.10;74.50;;;;;;5107868;28;20075;-68
2022/06/28 08:55:52;;;;;;;1.65;0.63;;;26.00;71.90;;;;;;5107431;28;20039;-70
2022/06/28 08:58:18;;;;;;;1.17;0.80;;;25.00;75.70;;;;;;5107578;28;20835;-68
2022/06/28 09:00:44;;;;;;;1.88;0.75;;;24.10;77.60;;;;;;5106222;28;20115;-69
2022/06/28 09:03:10;;;;;;;2.65;0.47;;;23.40;74.90;;;;;;5106270;28;20031;-68
2022/06/28 09:05:36;;;;;;;2.70;0.73;;;23.00;77.70;;;;;;5108161;28;20046;-68
2022/06/28 09:08:02;;;;;;;5.63;0.55;;;22.50;81.00;;;;;;5107706;28;20084;-68
2022/06/28 09:10:28;;;;;;;3.45;0.82;;;22.20;82.70;;;;;;5107858;28;20475;-69
2022/06/28 09:13:08;;;;;;;6.82;0.80;;;21.80;83.80;;;;;;5108444;28;20115;-68
2022/06/28 09:15:52;;;;;;;1.08;0.60;;;21.60;85.10;;;;;;5108147;27;20062;-68
2022/06/28 09:18:20;;;;;;;6.22;0.73;;;21.40;86.20;;;;;;5107025;28;20123;-70
2022/06/28 09:20:45;;;;;;;1.40;0.70;;;21.30;85.60;;;;;;5108198;28;20039;-70
2022/06/28 09:23:26;;;;;;;2.50;1.00;;;21.00;84.00;;;;;;5108378;28;20047;-69
2022/06/28 09:25:54;;;;;;;4.80;0.70;;;20.70;87.00;;;;;;5107484;28;20554;-68
2022/06/28 09:28:28;;;;;;;7.07;1.50;;;20.70;87.50;;;;;;5106959;28;20052;-68
2022/06/28 09:31:22;;;;;;;7.70;1.00;;;20.80;88.80;;;;;;5107376;28;20123;-68
2022/06/28 09:34:04;;;;;;;2.58;0.68;;;20.80;87.90;;;;;;5106629;28;20035;-69
2022/06/28 09:36:32;;;;;;;3.25;0.90;;;20.50;89.10;;;;;;5106787;28;20067;-68
2022/06/28 09:39:08;;;;;;;2.40;0.82;;;20.50;89.10;;;;;;5105726;28;20043;-69
2022/06/28 09:41:34;;;;;;;4.63;0.98;;;20.40;87.60;;;;;;5098874;28;20042;-68
2022/06/28 09:44:03;;;;;;;1.10;0.70;;;20.60;86.10;;;;;;5105371;28;20035;-68
2022/06/28 09:46:31;;;;;;;1.90;0.70;;;20.70;85.00;;;;;;5105425;28;20154;-67
2022/06/28 09:48:58;;;;;;;7.05;0.90;;;20.70;86.80;;;;;;5103626;28;20043;-66
2022/06/28 09:51:25;;;;;;;0.88;0.60;;;20.70;88.80;;;;;;5101978;28;20051;-67
2022/06/28 09:53:56;;;;;;;2.10;0.68;;;20.60;91.00;;;;;;5106778;28;20577;-69
2022/06/28 09:56:23;;;;;;;1.98;1.00;;;20.80;90.40;;;;;;5105131;28;20048;-68
2022/06/28 09:58:50;;;;;;;1.40;0.68;;;20.70;90.20;;;;;;5106180;28;20039;-68
2022/06/28 10:01:16;;;;;;;2.83;0.80;;;20.50;89.10;;;;;;5103307;28;20091;-68
2022/06/28 10:03:43;;;;;;;1.95;0.80;;;20.60;88.10;;;;;;5101599;28;20569;-67
2022/06/28 10:06:09;;;;;;;1.73;0.80;;;20.70;88.70;;;;;;5106613;28;20039;-67
2022/06/28 10:08:35;;;;;;;1.65;0.60;;;20.60;86.80;;;;;;5107982;28;20110;-67
2022/06/28 10:11:01;;;;;;;3.42;1.00;;;20.60;82.10;;;;;;5107110;28;20111;-67
2022/06/28 10:16:26;;;;;;;3.55;0.80;;;20.60;88.50;;;;;;5096463;28;20184;-66
2022/06/28 10:18:55;;;;;;;2.78;0.65;;;20.50;86.20;;;;;;5099227;28;20046;-66
2022/06/28 10:22:07;;;;;;;3.00;0.73;;;20.60;87.20;;;;;;5106639;28;20044;-66
2022/06/28 10:24:59;;;;;;;1.60;0.70;;;20.50;84.20;;;;;;5023747;28;20516;-69
2022/06/28 10:27:27;;;;;;;2.05;0.63;;;20.50;81.80;;;;;;5023171;28;20076;-69
2022/06/28 10:29:59;;;;;;;2.53;0.80;;;20.60;83.20;;;;;;5081712;28;20073;-68
2022/06/28 10:32:40;;;;;;;3.35;0.80;;;20.90;87.50;;;;;;5106034;28;20482;-70
2022/06/28 10:35:06;;;;;;;3.00;0.75;;;21.30;85.60;;;;;;5086845;28;20465;-70
2022/06/28 10:37:32;;;;;;;2.58;0.82;;;21.60;83.10;;;;;;5085739;28;20048;-67
2022/06/28 10:40:22;;;;;;;2.90;0.35;;;21.70;80.70;;;;;;5105748;28;20039;-68
2022/06/28 10:42:52;;;;;;;2.97;0.57;;;21.80;82.90;;;;;;5101581;28;20513;-67
2022/06/28 10:45:21;;;;;;;3.78;0.82;;;21.90;78.50;;;;;;5106630;28;20043;-68
2022/06/28 10:48:09;;;;;;;2.63;0.80;;;22.00;84.00;;;;;;5105511;28;20550;-67
2022/06/28 10:50:57;;;;;;;3.95;0.80;;;21.50;81.50;;;;;;5106259;28;20507;-67
2022/06/28 10:53:24;;;;;;;2.80;0.63;;;21.10;80.90;;;;;;5106554;28;20039;-67
2022/06/28 10:56:14;;;;;;;5.38;0.70;;;20.90;82.70;;;;;;5098473;28;20085;-67
2022/06/28 10:59:04;;;;;;;2.72;0.60;;;21.10;84.50;;;;;;5090226;28;20032;-66
2022/06/28 11:01:44;;;;;;;5.47;0.50;;;21.00;86.10;;;;;;5104287;28;20722;-66
2022/06/28 11:04:23;;;;;;;1.92;0.70;;;20.70;87.70;;;;;;5105957;28;20501;-65
2022/06/28 11:06:56;;;;;;;2.30;0.70;;;20.80;86.50;;;;;;5106345;28;20476;-65
2022/06/28 11:09:48;;;;;;;3.47;0.98;;;20.80;83.30;;;;;;5103407;28;20039;-66
2022/06/28 11:12:27;;;;;;;1.45;0.55;;;20.70;83.50;;;;;;5102027;28;20718;-68
2022/06/28 11:14:58;;;;;;;3.35;0.70;;;20.90;85.60;;;;;;5104251;28;20384;-66
2022/06/28 11:17:32;;;;;;;1.80;0.60;;;20.90;83.50;;;;;;5101783;28;20054;-68
2022/06/28 11:20:03;;;;;;;3.60;0.70;;;21.00;82.80;;;;;;5102054;28;20146;-67
2022/06/28 11:22:44;;;;;;;2.00;0.65;;;20.80;84.00;;;;;;5105519;28;20079;-68
2022/06/28 11:25:14;;;;;;;1.55;0.57;;;20.80;86.00;;;;;;5103929;28;20126;-67
2022/06/28 11:27:58;;;;;;;1.55;0.70;;;20.90;84.30;;;;;;5097191;28;20638;-68
2022/06/28 11:30:27;;;;;;;2.92;1.00;;;21.00;82.50;;;;;;5104528;28;20035;-67
2022/06/28 11:32:59;;;;;;;4.13;0.60;;;20.90;84.90;;;;;;5105296;28;20039;-66
2022/06/28 11:35:30;;;;;;;2.45;0.70;;;20.90;82.80;;;;;;5105497;28;20046;-66
2022/06/28 11:38:09;;;;;;;1.23;0.43;;;20.80;83.50;;;;;;5104488;28;20371;-68
2022/06/28 11:40:40;;;;;;;1.83;0.63;;;20.90;82.30;;;;;;5100185;28;20046;-64
2022/06/28 11:43:14;;;;;;;2.92;0.57;;;21.00;81.80;;;;;;5102328;28;20122;-68
2022/06/28 11:45:43;;;;;;;5.60;0.80;;;20.90;82.00;;;;;;5101625;28;20041;-66
2022/06/28 11:48:12;;;;;;;0.40;0.30;;;20.80;81.50;;;;;;5096873;28;20043;-66
2022/06/28 11:50:43;;;;;;;2.08;0.85;;;21.10;86.30;;;;;;5104401;28;20063;-68
2022/06/28 11:53:11;;;;;;;1.00;0.40;;;21.00;85.00;;;;;;5105363;28;20085;-67
2022/06/28 11:55:45;;;;;;;1.00;0.60;;;20.80;83.30;;;;;;5099963;28;20079;-66
2022/06/28 11:58:23;;;;;;;0.65;0.52;;;20.70;82.70;;;;;;5083651;28;20032;-67
2022/06/28 12:01:14;;;;;;;2.50;0.57;;;20.60;81.10;;;;;;5100727;28;20059;-66
2022/06/28 12:03:42;;;;;;;3.30;0.70;;;20.50;83.70;;;;;;5106539;28;20028;-66
2022/06/28 12:06:12;;;;;;;5.28;0.98;;;20.40;84.60;;;;;;5105149;28;20158;-67
2022/06/28 12:09:02;;;;;;;3.00;0.90;;;20.20;83.50;;;;;;5104468;28;20067;-67
2022/06/28 12:11:32;;;;;;;1.63;0.65;;;20.00;84.50;;;;;;5096388;28;20100;-67
2022/06/28 12:14:05;;;;;;;1.67;0.70;;;20.10;85.20;;;;;;5106873;28;20047;-67
2022/06/28 12:16:35;;;;;;;2.90;0.82;;;20.00;83.50;;;;;;5109717;28;20681;-66
2022/06/28 12:19:02;;;;;;;2.35;0.73;;;20.10;86.60;;;;;;5108614;28;20028;-67
2022/06/28 12:21:28;;;;;;;4.10;0.90;;;20.00;88.40;;;;;;5108559;28;20039;-67
2022/06/28 12:23:56;;;;;;;0.77;0.63;;;20.00;90.00;;;;;;5109243;28;20058;-66
2022/06/28 12:26:45;;;;;;;4.65;0.77;;;20.10;85.60;;;;;;5107515;28;20047;-67
2022/06/28 12:29:12;;;;;;;3.55;1.00;;;20.30;88.10;;;;;;5108335;28;20081;-66
2022/06/28 12:31:40;;;;;;;1.98;0.80;;;20.30;85.60;;;;;;5108228;28;20067;-67
2022/06/28 12:34:07;;;;;;;2.53;1.15;;;20.40;85.20;;;;;;5109264;28;20043;-66
2022/06/28 12:36:33;;;;;;;2.45;0.73;;;20.50;85.70;;;;;;5109316;28;20043;-67
2022/06/28 12:38:59;;;;;;;4.10;0.50;;;20.60;86.60;;;;;;5106260;28;20444;-68
2022/06/28 12:41:24;;;;;;;0.95;0.60;;;20.60;86.00;;;;;;5107515;28;20123;-66
2022/06/28 12:43:50;;;;;;;0.80;0.80;;;20.60;82.90;;;;;;5108415;28;20372;-67
2022/06/28 12:46:15;;;;;;;2.50;0.60;;;20.70;85.60;;;;;;5108234;28;20036;-67
2022/06/28 12:48:41;;;;;;;1.45;0.70;;;21.10;85.80;;;;;;5107818;28;20715;-68
2022/06/28 12:51:07;;;;;;;1.98;0.70;;;21.00;83.50;;;;;;5107722;28;20521;-66
2022/06/28 12:53:32;;;;;;;2.92;0.60;;;20.90;80.80;;;;;;5107129;28;20398;-67
2022/06/28 12:55:58;;;;;;;2.72;0.75;;;20.80;81.30;;;;;;5101988;28;20035;-68
2022/06/28 12:58:24;;;;;;;4.13;0.60;;;20.80;83.70;;;;;;5107706;28;20039;-66
2022/06/28 13:00:50;;;;;;;1.40;0.55;;;20.80;84.10;;;;;;5104678;28;20415;-67
2022/06/28 13:03:16;;;;;;;2.40;0.68;;;20.90;83.80;;;;;;5110284;27;20032;-67
2022/06/28 13:05:42;;;;;;;1.70;0.70;;;20.90;84.00;;;;;;5112795;27;20038;-67
2022/06/28 13:08:08;;;;;;;1.45;0.60;;;20.90;82.10;;;;;;5090573;28;20070;-66
2022/06/28 13:10:34;;;;;;;1.30;0.60;;;21.10;82.60;;;;;;5103696;28;20655;-66
2022/06/28 13:12:59;;;;;;;1.60;0.68;;;21.40;82.00;;;;;;5093061;27;20061;-66
2022/06/28 13:15:25;;;;;;;1.65;0.50;;;21.40;82.60;;;;;;5106279;27;20043;-66
2022/06/28 13:17:51;;;;;;;1.50;0.70;;;21.40;80.40;;;;;;5109088;27;20074;-68
2022/06/28 13:20:18;;;;;;;1.48;0.70;;;21.20;82.20;;;;;;5118697;27;20054;-68
2022/06/28 13:22:44;;;;;;;1.38;0.57;;;20.80;82.50;;;;;;5086454;28;20032;-66